createdAt,value
2024-02-27T00:01:28.017Z,8.44
2024-02-27T00:03:57.067Z,8.43
2024-02-27T00:06:25.748Z,8.41
2024-02-27T00:08:54.479Z,8.38
2024-02-27T00:11:24.933Z,8.38
2024-02-27T00:13:53.675Z,8.36
2024-02-27T00:16:22.372Z,8.36
2024-02-27T00:18:52.164Z,8.35
2024-02-27T00:21:22.265Z,8.35
2024-02-27T00:23:51.765Z,8.34
2024-02-27T00:26:20.410Z,8.33
2024-02-27T00:28:49.055Z,8.33
2024-02-27T00:31:17.815Z,8.33
2024-02-27T00:33:46.567Z,8.32
2024-02-27T00:36:16.666Z,8.31
2024-02-27T00:38:45.271Z,8.30
2024-02-27T00:41:13.934Z,8.28
2024-02-27T00:43:42.617Z,8.25
2024-02-27T00:46:11.245Z,8.24
2024-02-27T00:48:39.984Z,8.21
2024-02-27T00:51:08.737Z,8.18
2024-02-27T00:53:38.496Z,8.18
2024-02-27T00:56:08.410Z,8.15
2024-02-27T00:58:37.092Z,8.13
2024-02-27T01:01:05.994Z,8.12
2024-02-27T01:03:34.697Z,8.11
2024-02-27T01:06:05.231Z,8.10
2024-02-27T01:08:34.015Z,8.10
2024-02-27T01:11:04.053Z,8.08
2024-02-27T01:13:32.761Z,8.07
2024-02-27T01:16:01.371Z,8.06
2024-02-27T01:18:30.167Z,8.05
2024-02-27T01:20:59.314Z,8.04
2024-02-27T01:23:28.076Z,8.03
2024-02-27T01:25:56.868Z,8.03
2024-02-27T01:28:26.842Z,8.03
2024-02-27T01:30:55.442Z,8.01
2024-02-27T01:33:24.210Z,8.01
2024-02-27T01:35:52.928Z,8.00
2024-02-27T01:38:21.582Z,7.99
2024-02-27T01:40:50.342Z,7.99
2024-02-27T01:43:23.720Z,7.97
2024-02-27T01:46:14.586Z,7.94
2024-02-27T01:48:44.085Z,7.95
2024-02-27T01:51:14.827Z,7.93
2024-02-27T01:53:45.786Z,7.94
2024-02-27T01:56:14.748Z,7.93
2024-02-27T01:58:42.730Z,7.93
2024-02-27T02:01:14.802Z,7.92
2024-02-27T02:03:44.001Z,7.92
2024-02-27T02:06:12.962Z,7.90
2024-02-27T02:08:41.709Z,7.88
2024-02-27T02:11:11.874Z,7.85
2024-02-27T02:13:41.008Z,7.83
2024-02-27T02:16:09.832Z,7.78
2024-02-27T02:18:39.930Z,7.75
2024-02-27T02:21:10.113Z,7.73
2024-02-27T02:23:38.750Z,7.70
2024-02-27T02:26:08.213Z,7.70
2024-02-27T02:28:37.155Z,7.69
2024-02-27T02:31:05.982Z,7.68
2024-02-27T02:33:35.308Z,7.67
2024-02-27T02:36:04.059Z,7.66
2024-02-27T02:38:34.129Z,7.65
2024-02-27T02:41:02.723Z,7.65
2024-02-27T02:43:31.389Z,7.64
2024-02-27T02:46:00.148Z,7.64
2024-02-27T02:48:31.391Z,7.63
2024-02-27T02:51:00.783Z,7.62
2024-02-27T02:53:30.692Z,7.60
2024-02-27T02:56:00.749Z,7.60
2024-02-27T02:58:30.205Z,7.60
2024-02-27T03:00:59.031Z,7.58
2024-02-27T03:03:27.848Z,7.59
2024-02-27T03:05:56.549Z,7.58
2024-02-27T03:08:26.225Z,7.57
2024-02-27T03:10:54.943Z,7.57
2024-02-27T03:13:25.016Z,7.56
2024-02-27T03:15:53.663Z,7.54
2024-02-27T03:18:22.447Z,7.52
2024-02-27T03:20:51.193Z,7.50
2024-02-27T03:23:19.791Z,7.49
2024-02-27T03:25:48.548Z,7.48
2024-02-27T03:28:17.274Z,7.46
2024-02-27T03:30:47.479Z,7.43
2024-02-27T03:33:16.466Z,7.40
2024-02-27T03:35:45.202Z,7.37
2024-02-27T03:38:13.887Z,7.34
2024-02-27T03:40:42.559Z,7.29
2024-02-27T03:43:11.361Z,7.26
2024-02-27T03:45:40.199Z,7.23
2024-02-27T03:48:10.512Z,7.22
2024-02-27T03:50:39.383Z,7.22
2024-02-27T03:53:08.288Z,7.21
2024-02-27T03:55:37.948Z,7.23
2024-02-27T03:58:06.793Z,7.24
2024-02-27T04:00:35.867Z,7.25
2024-02-27T04:03:05.804Z,7.26
2024-02-27T04:05:35.987Z,7.26
2024-02-27T04:08:09.324Z,7.27
2024-02-27T04:10:38.032Z,7.26
2024-02-27T04:13:06.853Z,7.26
2024-02-27T04:15:35.690Z,7.24
2024-02-27T04:18:06.874Z,7.20
2024-02-27T04:20:37.039Z,7.16
2024-02-27T04:23:05.974Z,7.11
2024-02-27T04:25:34.766Z,7.06
2024-02-27T04:28:03.421Z,7.00
2024-02-27T04:30:32.052Z,6.95
2024-02-27T04:33:01.090Z,6.91
2024-02-27T04:35:30.196Z,6.85
2024-02-27T04:38:00.189Z,6.81
2024-02-27T04:40:29.045Z,6.77
2024-02-27T04:42:58.020Z,6.75
2024-02-27T04:45:26.653Z,6.72
2024-02-27T04:47:55.357Z,6.68
2024-02-27T04:50:24.097Z,6.65
2024-02-27T04:52:53.168Z,6.62
2024-02-27T04:55:23.149Z,6.58
2024-02-27T04:57:51.726Z,6.55
2024-02-27T05:00:20.590Z,6.54
2024-02-27T05:02:49.220Z,6.51
2024-02-27T05:05:17.985Z,6.51
2024-02-27T05:07:46.622Z,6.51
2024-02-27T05:10:36.555Z,6.51
2024-02-27T05:13:29.027Z,6.52
2024-02-27T05:16:09.685Z,6.53
2024-02-27T05:18:40.342Z,6.54
2024-02-27T05:21:09.209Z,6.53
2024-02-27T05:23:38.189Z,6.53
2024-02-27T05:26:08.215Z,6.52
2024-02-27T05:28:37.561Z,6.50
2024-02-27T05:31:24.786Z,6.46
2024-02-27T05:33:53.756Z,6.44
2024-02-27T05:36:22.965Z,6.40
2024-02-27T05:38:52.425Z,6.37
2024-02-27T05:41:23.233Z,6.34
2024-02-27T05:43:52.013Z,6.30
2024-02-27T05:46:20.706Z,6.25
2024-02-27T05:48:49.561Z,6.22
2024-02-27T05:51:21.114Z,6.18
2024-02-27T05:53:49.992Z,6.14
2024-02-27T05:56:22.046Z,6.12
2024-02-27T05:58:53.635Z,6.09
2024-02-27T06:01:22.355Z,6.07
2024-02-27T06:03:51.071Z,6.04
2024-02-27T06:06:19.895Z,6.04
2024-02-27T06:08:48.269Z,6.02
2024-02-27T06:11:16.752Z,6.00
2024-02-27T06:13:45.979Z,5.99
2024-02-27T06:16:16.048Z,5.97
2024-02-27T06:18:47.351Z,5.96
2024-02-27T06:21:33.921Z,5.94
2024-02-27T06:24:02.926Z,5.92
2024-02-27T06:26:31.557Z,5.92
2024-02-27T06:29:00.492Z,5.90
2024-02-27T06:31:30.525Z,5.88
2024-02-27T06:33:59.286Z,5.87
2024-02-27T06:36:28.412Z,5.84
2024-02-27T06:38:57.977Z,5.84
2024-02-27T06:41:26.917Z,5.83
2024-02-27T06:43:55.513Z,5.82
2024-02-27T06:46:24.600Z,5.80
2024-02-27T06:49:03.712Z,5.80
2024-02-27T06:51:42.436Z,5.77
2024-02-27T06:54:11.236Z,5.75
2024-02-27T06:56:40.197Z,5.76
2024-02-27T06:59:08.950Z,5.77
2024-02-27T07:01:37.573Z,5.78
2024-02-27T07:04:07.838Z,5.78
2024-02-27T07:06:37.240Z,5.78
2024-02-27T07:09:06.003Z,5.79
2024-02-27T07:11:34.886Z,5.82
2024-02-27T07:14:03.798Z,5.83
2024-02-27T07:16:32.404Z,5.84
2024-02-27T07:19:01.153Z,5.88
2024-02-27T07:21:31.271Z,5.90
2024-02-27T07:23:59.950Z,5.91
2024-02-27T07:26:29.405Z,5.93
2024-02-27T07:28:58.053Z,5.95
2024-02-27T07:31:26.678Z,5.97
2024-02-27T07:33:57.071Z,5.99
2024-02-27T07:36:25.875Z,6.02
2024-02-27T07:38:55.957Z,6.04
2024-02-27T07:41:24.792Z,6.07
2024-02-27T07:43:54.540Z,6.07
2024-02-27T07:46:23.363Z,6.11
2024-02-27T07:48:51.988Z,6.19
2024-02-27T07:51:39.216Z,6.28
2024-02-27T07:54:09.302Z,6.53
2024-02-27T07:56:38.012Z,6.98
2024-02-27T07:59:06.662Z,7.52
2024-02-27T08:01:35.311Z,7.92
2024-02-27T08:04:05.342Z,8.03
2024-02-27T08:06:34.440Z,8.15
2024-02-27T08:09:03.180Z,8.42
2024-02-27T08:11:33.255Z,8.65
2024-02-27T08:14:04.019Z,8.74
2024-02-27T08:16:33.390Z,8.61
2024-02-27T08:19:05.590Z,8.45
2024-02-27T08:21:34.860Z,8.37
2024-02-27T08:24:04.039Z,8.41
2024-02-27T08:26:34.182Z,8.39
2024-02-27T08:29:02.826Z,8.35
2024-02-27T08:31:31.504Z,8.26
2024-02-27T08:34:04.509Z,8.14
2024-02-27T08:36:34.349Z,8.06
2024-02-27T08:39:03.406Z,8.04
2024-02-27T08:41:34.653Z,8.21
2024-02-27T08:44:03.308Z,8.68
2024-02-27T08:46:32.675Z,9.30
2024-02-27T08:49:01.555Z,9.91
2024-02-27T08:51:30.387Z,10.52
2024-02-27T08:53:59.182Z,11.14
2024-02-27T08:56:28.021Z,11.60
2024-02-27T08:58:58.034Z,11.87
2024-02-27T09:01:26.732Z,12.04
2024-02-27T09:03:55.656Z,12.22
2024-02-27T09:06:24.403Z,12.26
2024-02-27T09:08:53.124Z,12.17
2024-02-27T09:11:21.895Z,12.15
2024-02-27T09:13:50.529Z,12.18
2024-02-27T09:16:20.486Z,12.14
2024-02-27T09:18:49.189Z,12.04
2024-02-27T09:21:18.580Z,11.81
2024-02-27T09:23:47.241Z,11.41
2024-02-27T09:26:15.900Z,11.04
2024-02-27T09:28:44.572Z,10.81
2024-02-27T09:31:19.994Z,10.62
2024-02-27T09:33:54.041Z,10.45
2024-02-27T09:36:22.873Z,10.43
2024-02-27T09:38:51.595Z,11.07
2024-02-27T09:41:30.195Z,11.79
2024-02-27T09:43:58.888Z,12.47
2024-02-27T09:46:29.594Z,12.92
2024-02-27T09:49:02.068Z,13.43
2024-02-27T09:51:32.067Z,13.80
2024-02-27T09:54:03.592Z,14.03
2024-02-27T09:56:34.031Z,14.05
2024-02-27T09:59:04.062Z,13.96
2024-02-27T10:01:37.559Z,13.59
2024-02-27T10:04:08.443Z,13.56
2024-02-27T10:06:37.620Z,13.75
2024-02-27T10:09:08.191Z,14.08
2024-02-27T10:11:37.669Z,14.34
2024-02-27T10:14:15.277Z,14.61
2024-02-27T10:16:44.212Z,14.78
2024-02-27T10:19:14.070Z,14.60
2024-02-27T10:21:42.751Z,14.69
2024-02-27T10:24:11.450Z,14.76
2024-02-27T10:26:40.216Z,14.72
2024-02-27T10:29:09.331Z,14.44
2024-02-27T10:31:40.024Z,14.37
2024-02-27T10:34:09.686Z,14.65
2024-02-27T10:36:41.846Z,14.96
2024-02-27T10:39:11.202Z,15.16
2024-02-27T10:41:42.719Z,15.43
2024-02-27T10:44:14.573Z,15.58
2024-02-27T10:46:43.902Z,15.90
2024-02-27T10:49:14.154Z,16.10
2024-02-27T10:51:45.599Z,16.16
2024-02-27T10:54:17.943Z,16.40
2024-02-27T10:56:48.303Z,16.64
2024-02-27T10:59:16.702Z,16.79
2024-02-27T11:01:48.328Z,17.09
2024-02-27T11:04:20.898Z,17.06
2024-02-27T11:06:54.046Z,17.14
2024-02-27T11:09:28.048Z,17.19
2024-02-27T11:12:00.900Z,17.34
2024-02-27T11:14:30.516Z,17.39
2024-02-27T11:17:07.583Z,17.52
2024-02-27T11:19:39.437Z,17.89
2024-02-27T11:22:11.088Z,18.15
2024-02-27T11:24:41.173Z,18.20
2024-02-27T11:27:10.988Z,18.20
2024-02-27T11:29:39.708Z,18.12
2024-02-27T11:32:08.660Z,17.97
2024-02-27T11:34:37.560Z,17.81
2024-02-27T11:37:15.448Z,17.59
2024-02-27T11:39:44.711Z,17.81
2024-02-27T11:42:23.356Z,18.00
2024-02-27T11:45:10.016Z,18.29
2024-02-27T11:47:48.605Z,18.44
2024-02-27T11:50:47.259Z,18.59
2024-02-27T11:53:39.234Z,18.74
2024-02-27T11:56:10.596Z,18.63
2024-02-27T11:58:39.492Z,18.70
2024-02-27T12:01:14.523Z,18.89
2024-02-27T12:03:45.722Z,19.01
2024-02-27T12:06:14.608Z,19.05
2024-02-27T12:08:51.466Z,19.13
2024-02-27T12:11:22.212Z,19.09
2024-02-27T12:13:51.735Z,19.07
2024-02-27T12:16:27.856Z,18.82
2024-02-27T12:18:59.622Z,18.77
2024-02-27T12:21:32.655Z,18.81
2024-02-27T12:24:17.142Z,18.77
2024-02-27T12:26:47.715Z,19.19
2024-02-27T12:29:17.769Z,19.10
2024-02-27T12:31:46.505Z,18.87
2024-02-27T12:34:15.128Z,18.86
2024-02-27T12:36:44.190Z,18.93
2024-02-27T12:39:14.913Z,18.68
2024-02-27T12:41:43.935Z,18.49
2024-02-27T12:44:12.640Z,18.51
2024-02-27T12:46:41.125Z,18.47
2024-02-27T12:49:11.025Z,18.36
2024-02-27T12:51:39.988Z,18.50
2024-02-27T12:54:09.114Z,18.60
2024-02-27T12:56:39.908Z,18.59
2024-02-27T12:59:11.079Z,18.80
2024-02-27T13:01:41.392Z,19.10
2024-02-27T13:04:10.401Z,19.27
2024-02-27T13:06:39.518Z,19.08
2024-02-27T13:09:08.533Z,18.74
2024-02-27T13:11:44.413Z,18.22
2024-02-27T13:14:13.147Z,17.73
2024-02-27T13:16:41.774Z,17.38
2024-02-27T13:19:10.358Z,17.28
2024-02-27T13:21:41.887Z,17.32
2024-02-27T13:24:11.328Z,17.41
2024-02-27T13:26:41.684Z,17.60
2024-02-27T13:29:10.395Z,17.69
2024-02-27T13:31:39.194Z,17.74
2024-02-27T13:34:08.070Z,17.57
2024-02-27T13:36:36.784Z,17.50
2024-02-27T13:39:06.832Z,17.37
2024-02-27T13:41:35.496Z,17.26
2024-02-27T13:44:05.684Z,17.13
2024-02-27T13:46:34.419Z,17.05
2024-02-27T13:49:03.320Z,16.92
2024-02-27T13:51:32.120Z,16.79
2024-02-27T13:54:00.883Z,16.68
2024-02-27T13:56:29.547Z,16.64
2024-02-27T13:58:58.398Z,16.74
2024-02-27T14:01:28.540Z,16.99
2024-02-27T14:03:57.375Z,17.17
2024-02-27T14:06:26.084Z,17.39
2024-02-27T14:08:54.528Z,17.54
2024-02-27T14:11:23.238Z,17.49
2024-02-27T14:13:54.600Z,17.21
2024-02-27T14:16:25.148Z,17.00
2024-02-27T14:18:55.038Z,16.86
2024-02-27T14:21:23.880Z,16.86
2024-02-27T14:23:52.606Z,16.95
2024-02-27T14:26:21.357Z,16.95
2024-02-27T14:28:50.001Z,16.88
2024-02-27T14:31:18.688Z,16.81
2024-02-27T14:33:47.547Z,16.64
2024-02-27T14:36:17.758Z,16.31
2024-02-27T14:38:46.519Z,16.02
2024-02-27T14:41:15.396Z,15.77
2024-02-27T14:43:44.657Z,15.57
2024-02-27T14:46:13.278Z,15.35
2024-02-27T14:48:41.939Z,15.23
2024-02-27T14:51:11.025Z,15.13
2024-02-27T14:53:41.148Z,15.00
2024-02-27T14:56:09.813Z,15.02
2024-02-27T14:58:38.188Z,15.03
2024-02-27T15:01:08.583Z,14.97
2024-02-27T15:03:37.873Z,14.93
2024-02-27T15:06:07.614Z,14.93
2024-02-27T15:08:36.389Z,14.95
2024-02-27T15:11:06.540Z,14.97
2024-02-27T15:13:35.260Z,14.98
2024-02-27T15:16:04.030Z,14.96
2024-02-27T15:18:32.820Z,14.98
2024-02-27T15:21:05.730Z,14.90
2024-02-27T15:23:34.445Z,14.78
2024-02-27T15:26:03.053Z,14.76
2024-02-27T15:28:32.786Z,14.77
2024-02-27T15:31:01.633Z,14.92
2024-02-27T15:33:30.370Z,15.12
2024-02-27T15:35:59.045Z,15.31
2024-02-27T15:38:27.707Z,15.46
2024-02-27T15:40:56.065Z,15.51
2024-02-27T15:43:25.048Z,15.49
2024-02-27T15:45:55.066Z,15.41
2024-02-27T15:48:23.949Z,15.32
2024-02-27T15:50:53.090Z,15.20
2024-02-27T15:53:21.880Z,15.08
2024-02-27T15:55:50.479Z,15.00
2024-02-27T15:58:19.203Z,14.87
2024-02-27T16:00:47.833Z,14.75
2024-02-27T16:03:26.020Z,14.68
2024-02-27T16:05:58.332Z,14.63
2024-02-27T16:08:27.096Z,14.57
2024-02-27T16:10:55.807Z,14.53
2024-02-27T16:13:24.573Z,14.44
2024-02-27T16:15:53.489Z,14.33
2024-02-27T16:18:23.784Z,14.20
2024-02-27T16:20:52.688Z,14.03
2024-02-27T16:23:26.371Z,13.88
2024-02-27T16:25:55.646Z,13.72
2024-02-27T16:28:24.230Z,13.56
2024-02-27T16:30:53.008Z,13.35
2024-02-27T16:33:23.263Z,13.13
2024-02-27T16:35:51.776Z,12.91
2024-02-27T16:38:20.144Z,12.71
2024-02-27T16:40:48.822Z,12.53
2024-02-27T16:43:17.444Z,12.38
2024-02-27T16:45:46.140Z,12.25
2024-02-27T16:48:14.838Z,12.10
2024-02-27T16:50:44.968Z,11.96
2024-02-27T16:53:13.810Z,11.83
2024-02-27T16:55:42.538Z,11.72
2024-02-27T16:58:11.259Z,11.60
2024-02-27T17:00:40.135Z,11.49
2024-02-27T17:03:09.020Z,11.38
2024-02-27T17:05:37.735Z,11.27
2024-02-27T17:08:08.690Z,11.17
2024-02-27T17:10:37.415Z,11.08
2024-02-27T17:13:06.010Z,10.99
2024-02-27T17:15:34.745Z,10.90
2024-02-27T17:18:03.879Z,10.82
2024-02-27T17:20:32.712Z,10.72
2024-02-27T17:23:03.574Z,10.66
2024-02-27T17:25:33.280Z,10.60
2024-02-27T17:28:01.871Z,10.51
2024-02-27T17:30:31.193Z,10.45
2024-02-27T17:32:59.937Z,10.39
2024-02-27T17:35:28.660Z,10.34
2024-02-27T17:37:57.425Z,10.28
2024-02-27T17:40:26.982Z,10.19
2024-02-27T17:42:57.265Z,10.12
2024-02-27T17:45:25.984Z,10.06
2024-02-27T17:47:54.622Z,10.00
2024-02-27T17:50:23.432Z,9.95
2024-02-27T17:52:52.029Z,9.91
2024-02-27T17:55:20.752Z,9.87
2024-02-27T17:57:49.499Z,9.81
2024-02-27T18:00:20.124Z,9.77
2024-02-27T18:02:48.768Z,9.72
2024-02-27T18:05:18.117Z,9.68
2024-02-27T18:07:46.891Z,9.64
2024-02-27T18:10:18.209Z,9.60
2024-02-27T18:12:47.949Z,9.54
2024-02-27T18:15:18.648Z,9.51
2024-02-27T18:17:48.703Z,9.47
2024-02-27T18:20:18.615Z,9.44
2024-02-27T18:22:47.490Z,9.41
2024-02-27T18:25:16.219Z,9.36
2024-02-27T18:27:44.932Z,9.34
2024-02-27T18:30:14.240Z,9.29
2024-02-27T18:32:43.982Z,9.26
2024-02-27T18:35:13.443Z,9.24
2024-02-27T18:37:42.294Z,9.21
2024-02-27T18:40:11.544Z,9.21
2024-02-27T18:42:40.189Z,9.16
2024-02-27T18:45:09.754Z,9.13
2024-02-27T18:47:38.432Z,9.08
2024-02-27T18:50:09.589Z,9.05
2024-02-27T18:52:38.283Z,9.01
2024-02-27T18:55:07.074Z,8.99
2024-02-27T18:57:38.468Z,8.95
2024-02-27T19:00:09.080Z,8.91
2024-02-27T19:02:37.807Z,8.87
2024-02-27T19:05:08.435Z,8.83
2024-02-27T19:07:37.228Z,8.79
2024-02-27T19:10:07.157Z,8.76
2024-02-27T19:12:36.278Z,8.72
2024-02-27T19:15:05.314Z,8.66
2024-02-27T19:17:34.250Z,8.60
2024-02-27T19:20:03.591Z,8.56
2024-02-27T19:22:33.684Z,8.51
2024-02-27T19:25:03.856Z,8.47
2024-02-27T19:27:32.743Z,8.43
2024-02-27T19:30:01.361Z,8.40
2024-02-27T19:32:29.998Z,8.37
2024-02-27T19:34:58.621Z,8.33
2024-02-27T19:37:27.244Z,8.31
2024-02-27T19:39:57.055Z,8.27
2024-02-27T19:42:25.434Z,8.22
2024-02-27T19:44:54.290Z,8.19
2024-02-27T19:47:22.973Z,8.15
2024-02-27T19:49:52.274Z,8.11
2024-02-27T19:52:20.984Z,8.09
2024-02-27T19:54:49.694Z,8.06
2024-02-27T19:57:22.136Z,8.02
2024-02-27T19:59:51.049Z,7.99
2024-02-27T20:02:20.992Z,7.94
2024-02-27T20:04:49.955Z,7.92
2024-02-27T20:07:20.278Z,7.88
2024-02-27T20:09:49.063Z,7.85
2024-02-27T20:12:19.204Z,7.82
2024-02-27T20:14:47.925Z,7.78
2024-02-27T20:17:16.577Z,7.76
2024-02-27T20:19:45.368Z,7.72
2024-02-27T20:22:14.040Z,7.67
2024-02-27T20:24:45.858Z,7.63
2024-02-27T20:27:14.757Z,7.61
2024-02-27T20:29:55.893Z,7.59
2024-02-27T20:32:28.384Z,7.53
2024-02-27T20:34:57.137Z,7.50
2024-02-27T20:37:25.901Z,7.48
2024-02-27T20:39:55.182Z,7.43
2024-02-27T20:42:24.182Z,7.40
2024-02-27T20:44:55.222Z,7.37
2024-02-27T20:47:23.917Z,7.34
2024-02-27T20:49:52.608Z,7.30
2024-02-27T20:52:21.327Z,7.28
2024-02-27T20:54:50.032Z,7.25
2024-02-27T20:57:18.762Z,7.20
2024-02-27T20:59:47.454Z,7.19
2024-02-27T21:02:18.898Z,7.15
2024-02-27T21:04:48.866Z,7.14
2024-02-27T21:07:17.889Z,7.13
2024-02-27T21:09:46.639Z,7.11
2024-02-27T21:12:15.330Z,7.09
2024-02-27T21:14:44.089Z,7.06
2024-02-27T21:17:13.050Z,7.04
2024-02-27T21:19:43.145Z,7.00
2024-02-27T21:22:11.750Z,6.97
2024-02-27T21:24:40.383Z,6.95
2024-02-27T21:27:09.356Z,6.92
2024-02-27T21:29:38.047Z,6.88
2024-02-27T21:32:07.032Z,6.85
2024-02-27T21:34:35.707Z,6.81
2024-02-27T21:37:07.683Z,6.80
2024-02-27T21:39:36.364Z,6.78
2024-02-27T21:42:05.707Z,6.75
2024-02-27T21:44:34.746Z,6.74
2024-02-27T21:47:03.932Z,6.72
2024-02-27T21:49:32.609Z,6.70
2024-02-27T21:52:03.684Z,6.70
2024-02-27T21:54:34.522Z,6.67
2024-02-27T21:57:03.167Z,6.64
2024-02-27T21:59:31.755Z,6.62
2024-02-27T22:02:00.459Z,6.61
2024-02-27T22:04:29.511Z,6.58
2024-02-27T22:06:58.169Z,6.54
2024-02-27T22:09:26.886Z,6.50
2024-02-27T22:11:56.936Z,6.48
2024-02-27T22:14:25.552Z,6.45
2024-02-27T22:16:54.148Z,6.43
2024-02-27T22:19:22.721Z,6.40
2024-02-27T22:21:51.587Z,6.35
2024-02-27T22:24:20.623Z,6.34
2024-02-27T22:26:49.294Z,6.32
2024-02-27T22:29:19.290Z,6.30
2024-02-27T22:31:47.925Z,6.28
2024-02-27T22:34:16.331Z,6.27
2024-02-27T22:36:45.384Z,6.25
2024-02-27T22:39:14.166Z,6.24
2024-02-27T22:41:43.047Z,6.21
2024-02-27T22:44:11.644Z,6.17
2024-02-27T22:46:41.650Z,6.15
2024-02-27T22:49:10.044Z,6.13
2024-02-27T22:51:39.802Z,6.11
2024-02-27T22:54:08.637Z,6.09
2024-02-27T22:56:37.251Z,6.08
2024-02-27T22:59:05.910Z,6.06
2024-02-27T23:01:34.622Z,6.03
2024-02-27T23:04:04.624Z,6.00
2024-02-27T23:06:34.510Z,5.96
2024-02-27T23:09:04.418Z,5.92
2024-02-27T23:11:33.077Z,5.87
2024-02-27T23:14:06.387Z,5.83
2024-02-27T23:16:36.441Z,5.80
2024-02-27T23:19:06.795Z,5.75
2024-02-27T23:21:34.456Z,5.73
2024-02-27T23:24:03.071Z,5.68
2024-02-27T23:26:31.866Z,5.64
2024-02-27T23:29:00.473Z,5.60
2024-02-27T23:31:29.119Z,5.56
2024-02-27T23:33:57.894Z,5.51
2024-02-27T23:36:28.027Z,5.46
2024-02-27T23:38:56.656Z,5.43
2024-02-27T23:41:25.292Z,5.39
2024-02-27T23:43:53.909Z,5.36
2024-02-27T23:46:22.567Z,5.32
2024-02-27T23:48:51.709Z,5.27
2024-02-27T23:51:21.884Z,5.22
2024-02-27T23:53:51.850Z,5.17
2024-02-27T23:56:20.463Z,5.12
2024-02-27T23:58:49.096Z,5.08
